Time;durP1;ratioP1;P1;durP2;ratioP2;P2;SDS_P1;SDS_P2;PMS_P1;PMS_P2;Temp;Humidity;BMP_temperature;BMP_pressure;BME280_temperature;BME280_humidity;BME280_pressure;Samples;Min_cycle;Max_cycle;Signal;HPM_P1;HPM_P2
2021/01/22 00:06:01;;;;;;;6.2;3.7;;;;;;;-0.52;87.34277;97586.23;;;;
2021/01/22 00:15:55;;;;;;;4.2;2.9;;;;;;;0.67;86.92871;97556.59;;;;
2021/01/22 00:25:53;;;;;;;12.5;6.9;;;;;;;1.19;84.10547;97537.58;;;;
2021/01/22 00:35:51;;;;;;;37.9;31.9;;;;;;;1.34;78.61035;97534.06;;;;
2021/01/22 00:45:49;;;;;;;36.4;30.2;;;;;;;0.76;79.29688;97533.79;;;;
2021/01/22 00:55:47;;;;;;;54.4;34.3;;;;;;;0.39;80.33008;97525.38;;;;
2021/01/22 01:05:45;;;;;;;42.5;30.8;;;;;;;0.13;81.23633;97507.94;;;;
2021/01/22 01:15:42;;;;;;;44.1;32;;;;;;;-0.12;82.31152;97501.59;;;;
2021/01/22 01:25:41;;;;;;;44.2;34.6;;;;;;;-0.13;83.16504;97499.2;;;;
2021/01/22 01:35:38;;;;;;;37.3;25.5;;;;;;;0.04;83.54883;97477.73;;;;
2021/01/22 01:45:39;;;;;;;40.3;29.8;;;;;;;0;83.10254;97466.91;;;;
2021/01/22 01:55:33;;;;;;;39.5;25.1;;;;;;;0;83.46484;97456.31;;;;
2021/01/22 02:05:31;;;;;;;37.1;22.6;;;;;;;0.56;85.51074;97441.04;;;;
2021/01/22 02:15:29;;;;;;;27.9;21.2;;;;;;;0.52;83.21484;97426.77;;;;
2021/01/22 02:25:27;;;;;;;23.6;17.3;;;;;;;0.43;83.88965;97399.22;;;;
2021/01/22 02:35:25;;;;;;;23.9;18.8;;;;;;;0.72;84.17871;97373.64;;;;
2021/01/22 02:45:22;;;;;;;14;12.3;;;;;;;0.76;84.3291;97348.17;;;;
2021/01/22 02:55:20;;;;;;;35.5;28;;;;;;;0.72;81.87695;97362.23;;;;
2021/01/22 03:05:18;;;;;;;41;34.1;;;;;;;0.58;81.85156;97346.14;;;;
2021/01/22 03:15:16;;;;;;;31.8;22.4;;;;;;;0.55;82.79102;97346.7;;;;
2021/01/22 03:25:13;;;;;;;26.7;14.1;;;;;;;0.78;83.43066;97326.66;;;;
2021/01/22 03:35:12;;;;;;;36.6;24.7;;;;;;;0.9;82.77148;97319.94;;;;
2021/01/22 03:45:09;;;;;;;23.7;17.7;;;;;;;1.19;83.91797;97325.3;;;;
2021/01/22 03:55:07;;;;;;;24.2;21;;;;;;;1.22;82.97559;97300.06;;;;
2021/01/22 04:05:05;;;;;;;38.3;27.1;;;;;;;1.51;82.94629;97296.36;;;;
2021/01/22 04:15:02;;;;;;;36.9;27.9;;;;;;;1.23;81.6123;97286.53;;;;
2021/01/22 04:25:00;;;;;;;23.1;19.9;;;;;;;1.37;82.99609;97287.47;;;;
2021/01/22 04:34:58;;;;;;;8.2;3.8;;;;;;;1.72;83.66992;97302.25;;;;
2021/01/22 04:44:56;;;;;;;36.5;27.7;;;;;;;1.7;81.80176;97291.1;;;;
2021/01/22 04:54:54;;;;;;;25.2;16.2;;;;;;;1.41;83.35547;97269.91;;;;
2021/01/22 05:04:52;;;;;;;17.3;11.9;;;;;;;1.34;83.51758;97258.04;;;;
2021/01/22 05:14:50;;;;;;;10.9;5.9;;;;;;;2.15;84.67871;97246.5;;;;
2021/01/22 05:24:47;;;;;;;5.4;3.2;;;;;;;2.52;84.0459;97243.85;;;;
2021/01/22 05:34:46;;;;;;;3.7;2.3;;;;;;;3.07;83.26758;97244.05;;;;
2021/01/22 05:44:44;;;;;;;7.4;4.2;;;;;;;3.1;82.15527;97235.48;;;;
2021/01/22 05:54:42;;;;;;;19.1;8.5;;;;;;;3.48;81.48633;97215.63;;;;
2021/01/22 06:04:40;;;;;;;13.7;8.1;;;;;;;3.88;79.93262;97206.86;;;;
2021/01/22 06:14:38;;;;;;;6.4;4.3;;;;;;;4.1;80.42773;97216.78;;;;
2021/01/22 06:24:36;;;;;;;9.8;5.2;;;;;;;4.16;79.68457;97215.61;;;;
2021/01/22 06:34:36;;;;;;;19.2;6;;;;;;;4.21;79.73535;97206.7;;;;
2021/01/22 06:44:34;;;;;;;5.1;2.9;;;;;;;5.01;77.125;97178.12;;;;
2021/01/22 06:54:34;;;;;;;15.8;13.9;;;;;;;5.36;73.09277;97196.99;;;;
2021/01/22 07:04:29;;;;;;;16.9;11.3;;;;;;;4.58;75.27832;97198.41;;;;
2021/01/22 07:14:27;;;;;;;13.2;9.2;;;;;;;4.45;76.93652;97208.02;;;;
2021/01/22 07:24:27;;;;;;;15.7;12.3;;;;;;;4.61;77.49805;97195.13;;;;
2021/01/22 07:34:24;;;;;;;5;2.9;;;;;;;5.9;75.0625;97193.91;;;;
2021/01/22 07:44:22;;;;;;;6.1;3.2;;;;;;;7.02;70.875;97185.92;;;;
2021/01/22 07:54:21;;;;;;;17;4;;;;;;;7.36;69.2373;97175.11;;;;
2021/01/22 08:04:19;;;;;;;5.6;3;;;;;;;7.93;66.98828;97174.7;;;;
2021/01/22 08:14:18;;;;;;;6.4;3.7;;;;;;;8.08;66.57324;97184.88;;;;
2021/01/22 08:24:17;;;;;;;6;2.9;;;;;;;8.28;66.07422;97188.69;;;;
2021/01/22 08:34:15;;;;;;;5.3;2.3;;;;;;;8.41;65.56543;97188.47;;;;
2021/01/22 08:44:14;;;;;;;3.8;2.4;;;;;;;8.47;65.50684;97191.73;;;;
2021/01/22 08:54:13;;;;;;;4;2.6;;;;;;;8.73;64.82422;97205.75;;;;
2021/01/22 09:04:12;;;;;;;3.7;1.7;;;;;;;8.88;64.2832;97205.16;;;;
2021/01/22 09:14:11;;;;;;;4.7;2.6;;;;;;;9.09;63.96387;97205.13;;;;
2021/01/22 09:24:09;;;;;;;8.3;1.7;;;;;;;9.46;63.13672;97214.06;;;;
2021/01/22 09:34:08;;;;;;;6;3.4;;;;;;;9.6;61.9248;97203.78;;;;
2021/01/22 09:44:07;;;;;;;4.6;2.7;;;;;;;9.78;61.96289;97199.77;;;;
2021/01/22 09:54:06;;;;;;;7.2;2.5;;;;;;;10.07;60.41992;97210.29;;;;
2021/01/22 10:04:04;;;;;;;3.7;2.6;;;;;;;10.33;59.52441;97220.75;;;;
2021/01/22 10:14:03;;;;;;;4.8;2.3;;;;;;;10.38;59.16797;97217.02;;;;
2021/01/22 10:24:02;;;;;;;3.8;2.3;;;;;;;10.64;58.66992;97216.64;;;;
2021/01/22 10:34:01;;;;;;;6;3.1;;;;;;;10.99;57.55957;97214.96;;;;
2021/01/22 10:44:00;;;;;;;8.4;2.9;;;;;;;10.63;58.13574;97209.67;;;;
2021/01/22 10:53:59;;;;;;;4.6;2.8;;;;;;;10.26;58.94922;97185.52;;;;
2021/01/22 11:03:58;;;;;;;6.2;2.5;;;;;;;10.03;60.25488;97160.94;;;;
2021/01/22 11:13:57;;;;;;;6.5;3.1;;;;;;;10.01;60.3877;97163.2;;;;
2021/01/22 11:23:56;;;;;;;6.9;3;;;;;;;9.77;61.31543;97148.97;;;;
2021/01/22 11:33:55;;;;;;;4.1;1.9;;;;;;;9.88;60.97949;97128.56;;;;
2021/01/22 11:43:54;;;;;;;6.6;2.8;;;;;;;9.8;61.50098;97130.25;;;;
2021/01/22 11:53:53;;;;;;;6.1;2.7;;;;;;;9.71;61.50977;97115.35;;;;
2021/01/22 12:03:52;;;;;;;6.4;3.5;;;;;;;9.73;61.77441;97124.65;;;;
2021/01/22 12:13:51;;;;;;;5.2;2.7;;;;;;;9.72;61.80664;97117.69;;;;
2021/01/22 12:23:50;;;;;;;4;2.4;;;;;;;9.64;61.53516;97110.54;;;;
2021/01/22 12:33:49;;;;;;;5.7;3;;;;;;;9.43;62.05859;97110.65;;;;
2021/01/22 12:43:48;;;;;;;4.8;1.9;;;;;;;9.46;61.89355;97114.56;;;;
2021/01/22 12:53:46;;;;;;;6.8;2.5;;;;;;;9.32;61.9873;97103.35;;;;
2021/01/22 13:03:45;;;;;;;5.6;2.7;;;;;;;9.27;62.20508;97123.16;;;;
2021/01/22 13:13:44;;;;;;;4.4;2.5;;;;;;;9.16;62.43848;97126.64;;;;
2021/01/22 13:23:43;;;;;;;4.7;2.9;;;;;;;9.01;63.51172;97138.8;;;;
2021/01/22 13:33:42;;;;;;;11.6;6.5;;;;;;;8.68;69.02051;97154.91;;;;
2021/01/22 13:43:40;;;;;;;7.6;4.6;;;;;;;8.02;70.5;97157.44;;;;
2021/01/22 13:53:39;;;;;;;3.8;1.8;;;;;;;7.82;69.97266;97158.19;;;;
2021/01/22 14:03:38;;;;;;;6.5;3.3;;;;;;;7.76;70.64746;97161.38;;;;
2021/01/22 14:13:36;;;;;;;3.3;1.7;;;;;;;7.7;69.04395;97150.06;;;;
2021/01/22 14:23:35;;;;;;;3.2;1.4;;;;;;;7.67;68.62305;97164.09;;;;
2021/01/22 14:33:35;;;;;;;5.9;2.6;;;;;;;7.66;68.33105;97184;;;;
2021/01/22 14:43:35;;;;;;;5.5;2.6;;;;;;;7.59;70.03613;97194.44;;;;
2021/01/22 14:53:31;;;;;;;6.6;3.8;;;;;;;7.55;70.72656;97193.5;;;;
2021/01/22 15:03:29;;;;;;;14.7;9.7;;;;;;;7.25;74.32031;97207.95;;;;
2021/01/22 15:13:28;;;;;;;15.6;11.9;;;;;;;6.86;75.21777;97212.42;;;;
2021/01/22 15:23:27;;;;;;;21.6;15.5;;;;;;;6.73;76.4248;97216.06;;;;
2021/01/22 15:33:25;;;;;;;15.7;10.1;;;;;;;6.43;77.49023;97231.15;;;;
2021/01/22 15:43:24;;;;;;;18.5;12.7;;;;;;;6.05;77.62402;97230.92;;;;
2021/01/22 15:53:23;;;;;;;19.7;13.8;;;;;;;6.12;78.08008;97229.67;;;;
2021/01/22 16:03:21;;;;;;;16.7;14.5;;;;;;;6.08;77.19336;97243.67;;;;
2021/01/22 16:13:19;;;;;;;24.9;19.2;;;;;;;6.06;77.18848;97253.91;;;;
2021/01/22 16:23:17;;;;;;;57.6;39.3;;;;;;;5.92;77.34277;97247.88;;;;
2021/01/22 16:33:16;;;;;;;39.1;24.8;;;;;;;5.73;76.75;97247.29;;;;
2021/01/22 16:43:14;;;;;;;12.1;9.2;;;;;;;6.12;75.72363;97248.39;;;;
2021/01/22 16:53:13;;;;;;;14.8;10.5;;;;;;;6.21;75.23633;97241.2;;;;
2021/01/22 17:03:13;;;;;;;21;13.4;;;;;;;6.26;74.95605;97249.06;;;;
2021/01/22 17:13:10;;;;;;;23.9;16.4;;;;;;;6.26;75.08008;97239.15;;;;
2021/01/22 17:23:08;;;;;;;24.3;19.1;;;;;;;5.91;76.14551;97238.27;;;;
2021/01/22 17:33:07;;;;;;;46.3;36.6;;;;;;;5.61;76.04785;97203.55;;;;
2021/01/22 17:43:05;;;;;;;38.5;26.2;;;;;;;5.32;78.82813;97204.04;;;;
2021/01/22 17:53:04;;;;;;;22.8;13.5;;;;;;;5.2;78.94043;97207.3;;;;
2021/01/22 18:03:02;;;;;;;31.1;21;;;;;;;5.08;78.08301;97201.72;;;;
2021/01/22 18:13:01;;;;;;;27.9;19.1;;;;;;;4.72;79.12988;97193.02;;;;
2021/01/22 18:22:59;;;;;;;34;24.3;;;;;;;4.57;79.44727;97183.48;;;;
2021/01/22 18:32:57;;;;;;;28.1;20.9;;;;;;;4.17;79.19531;97184.38;;;;
2021/01/22 18:42:55;;;;;;;22.2;16.1;;;;;;;3.88;80.57422;97200.74;;;;
2021/01/22 18:52:53;;;;;;;17.1;12.9;;;;;;;3.67;81.7666;97208.35;;;;
2021/01/22 19:02:52;;;;;;;28.4;21.1;;;;;;;3.59;82.42578;97216.23;;;;
2021/01/22 19:12:50;;;;;;;35.2;28.1;;;;;;;3.31;82.57227;97210.89;;;;
2021/01/22 19:22:48;;;;;;;24.5;20.6;;;;;;;3.39;83.70605;97206.76;;;;
2021/01/22 19:32:46;;;;;;;67.3;47.6;;;;;;;3.51;83.8418;97199.06;;;;
2021/01/22 19:42:44;;;;;;;40.6;29.7;;;;;;;3.39;83.31836;97182.8;;;;
2021/01/22 19:52:42;;;;;;;26;17;;;;;;;3.22;83.76367;97199.34;;;;
2021/01/22 20:02:40;;;;;;;34.8;23.9;;;;;;;3.09;84.16895;97186.78;;;;
2021/01/22 20:12:38;;;;;;;37.1;26;;;;;;;2.98;84.86523;97182.74;;;;
2021/01/22 20:22:36;;;;;;;42.4;25.9;;;;;;;2.69;83.34961;97188.27;;;;
2021/01/22 20:32:36;;;;;;;36.2;27.2;;;;;;;2.47;84.86426;97177.44;;;;
2021/01/22 20:42:32;;;;;;;38.9;23.5;;;;;;;2.61;86.20703;97170.3;;;;
2021/01/22 20:52:30;;;;;;;33.3;25.8;;;;;;;2.71;86.27051;97178.12;;;;
2021/01/22 21:02:28;;;;;;;34.9;24.9;;;;;;;2.42;85.26172;97166.9;;;;
2021/01/22 21:12:26;;;;;;;27.4;23.8;;;;;;;2.35;86.02246;97158.5;;;;
2021/01/22 21:22:24;;;;;;;41.6;31.8;;;;;;;2.09;86.00195;97157.27;;;;
2021/01/22 21:32:22;;;;;;;32.9;24.6;;;;;;;1.96;87.36621;97164.11;;;;
2021/01/22 21:42:20;;;;;;;30.7;27.4;;;;;;;2.01;89.14063;97161.39;;;;
2021/01/22 21:52:18;;;;;;;24.8;18.3;;;;;;;2.07;88.16113;97157.58;;;;
2021/01/22 22:02:16;;;;;;;21.5;17.8;;;;;;;2.28;88.37988;97145.58;;;;
2021/01/22 22:12:14;;;;;;;26.1;14.4;;;;;;;2.28;88.21484;97144.78;;;;
2021/01/22 22:22:12;;;;;;;25.2;19.2;;;;;;;2.22;87.09863;97145.95;;;;
2021/01/22 22:32:10;;;;;;;26.8;19.1;;;;;;;2.03;88.94629;97137.97;;;;
2021/01/22 22:42:08;;;;;;;42.8;31.5;;;;;;;2.27;87.77148;97151.17;;;;
2021/01/22 22:52:06;;;;;;;47.9;33;;;;;;;2.46;87.74414;97122.7;;;;
2021/01/22 23:02:04;;;;;;;29.6;23.4;;;;;;;2.68;86.50684;97138.02;;;;
2021/01/22 23:12:02;;;;;;;37.1;30;;;;;;;2.3;85.64746;97131.98;;;;
2021/01/22 23:22:00;;;;;;;30;22.2;;;;;;;2.13;87.17969;97129.84;;;;
2021/01/22 23:31:58;;;;;;;15.6;11.6;;;;;;;2.14;87.97559;97125.33;;;;
2021/01/22 23:41:56;;;;;;;39.3;26.1;;;;;;;2.02;86.07715;97131.06;;;;
2021/01/22 23:51:54;;;;;;;23.3;15.5;;;;;;;1.62;86.93359;97142.25;;;;
